Aérodrome :
LOGIN :

S'inscrire | Disclaimer

   EN    FR    IT 

 










Légende :    VFR   VFR Marginal   IFR   IFR Intensif   IFR Très Intensif
Visi : 
Plafond : 
>= 8 km
>= 3000ft
5 à 8 km
1000 à 3000 ft
1500m à 5 km
500 à 1000 ft
800 à 1500m
200 à 500 ft
< 800m
< 200 ft
Symboles :   Orages  Brouillard  Fortes neiges  Fortes précipitations  Vent > 20 kt
SIGMETs :   Divers  Orages  Givrage  Turbulence  Onde Orograph.  Cendres Volcan.






- Altitude de l'aérodrome : 1079 ft


ETIK - Illesheim Air Base

DERNIER METAR :
  • 040256Z AUTO 00000KT 9999 CLR M02/M02 A3017 RMK AO2 SLP231 T10181018 52008 $

METARs EXPIRÉS :
  • 040156Z AUTO 22003KT 9999 CLR 00/00 A3016 RMK AO2 SLP226 T10041004 $
  • 040056Z AUTO 26003KT 9999 SCT055 02/02 A3015 RMK AO2 SLP221 T00240024 $

TAF COR TAF ETIK
Valide du 03 à 23h jusqu'au 05 à 04h UTC


032313Z 0323/0504 28006KT 9999 BKN020 BKN040 QNH3012INS
BECMG 0407/0408 03009KT 9999 SCT040 QNH3028INS
BECMG 0500/0501 09008KT 9999 SKC QNH3029INS TX10/0413Z TNM01/0403Z LAST NO AMDS AFT 0322 NEXT 0522



MET'MAP, la Météo Aéronautique d'un coup d'oeil ! - Copyright ORBIFLY Décembre 2007 - Disclaimer

ORBIFLY MET'MAP TEAM :

Programmation & Développement : Alexandra Zaïnal
Sur une idée originale de : Baudouin d'Aumeries
Assistance à la programmation : Marc-Olivier Méhu
Soutien technique & logistique : Manuel Goepfert

Contact : metmap@orbifly.com




SOURCES & CREDITS :

   NOAA